Time;durP1;ratioP1;P1;durP2;ratioP2;P2;SDS_P1;SDS_P2;PMS_P1;PMS_P2;Temp;Humidity;BMP_temperature;BMP_pressure;BME280_temperature;BME280_humidity;BME280_pressure;Samples;Min_cycle;Max_cycle;Signal;HPM_P1;HPM_P2
2022/06/11 00:01:37;;;;;;;4.38;2.65;;;18.80;99.90;;;;;;5063612;28;20052;-79
2022/06/11 00:04:08;;;;;;;3.80;2.72;;;18.70;99.90;;;;;;5065004;28;20041;-80
2022/06/11 00:06:38;;;;;;;4.70;2.83;;;18.70;99.90;;;;;;5065371;28;21662;-79
2022/06/11 00:09:05;;;;;;;3.40;2.50;;;18.70;99.90;;;;;;5067346;28;20045;-78
2022/06/11 00:11:31;;;;;;;3.15;2.20;;;18.70;99.90;;;;;;5064201;28;20032;-79
2022/06/11 00:13:57;;;;;;;3.92;1.92;;;18.70;99.90;;;;;;5046608;28;20033;-80
2022/06/11 00:16:24;;;;;;;3.67;2.20;;;18.70;99.90;;;;;;5065579;28;20043;-80
2022/06/11 00:18:56;;;;;;;5.57;2.03;;;18.70;99.90;;;;;;5063812;28;20121;-80
2022/06/11 00:21:24;;;;;;;3.95;1.90;;;18.60;99.90;;;;;;5063419;28;20056;-80
2022/06/11 00:23:50;;;;;;;3.45;1.90;;;18.60;99.90;;;;;;5065686;28;20048;-80
2022/06/11 00:26:16;;;;;;;3.63;1.90;;;18.60;99.90;;;;;;5062420;28;20067;-80
2022/06/11 00:28:42;;;;;;;4.30;2.10;;;18.60;99.90;;;;;;5081002;28;20041;-80
2022/06/11 00:31:10;;;;;;;3.92;1.73;;;18.60;99.90;;;;;;5065413;28;20045;-79
2022/06/11 00:33:37;;;;;;;4.05;2.15;;;18.60;99.90;;;;;;5062230;28;20931;-80
2022/06/11 00:36:08;;;;;;;3.40;1.98;;;18.60;99.90;;;;;;5063182;28;20624;-80
2022/06/11 00:38:35;;;;;;;3.85;1.98;;;18.50;99.90;;;;;;5066009;28;20045;-80
2022/06/11 00:41:01;;;;;;;3.63;2.28;;;18.50;99.90;;;;;;5064511;28;20040;-80
2022/06/11 00:43:28;;;;;;;2.80;1.65;;;18.50;99.90;;;;;;5061879;28;20167;-80
2022/06/11 00:46:20;;;;;;;5.45;2.47;;;18.50;99.90;;;;;;5063897;28;20041;-80
2022/06/11 00:48:46;;;;;;;5.53;2.65;;;18.50;99.90;;;;;;5061663;28;20057;-80
2022/06/11 00:51:19;;;;;;;4.88;1.80;;;18.40;99.90;;;;;;5064332;28;20063;-80
2022/06/11 00:54:01;;;;;;;5.45;2.22;;;18.40;99.90;;;;;;5062873;28;20064;-80
2022/06/11 00:56:41;;;;;;;3.50;1.58;;;18.40;99.90;;;;;;5061914;28;20707;-80
2022/06/11 00:59:13;;;;;;;2.95;1.60;;;18.40;99.90;;;;;;5060147;28;20049;-80
2022/06/11 01:01:39;;;;;;;2.83;1.83;;;18.40;99.90;;;;;;5063647;28;20044;-80
2022/06/11 01:04:34;;;;;;;2.70;2.00;;;18.30;99.90;;;;;;5060151;28;20041;-80
2022/06/11 01:07:31;;;;;;;4.90;2.00;;;18.40;99.90;;;;;;5080758;28;20586;-80
2022/06/11 01:10:08;;;;;;;5.32;2.08;;;18.30;99.90;;;;;;5048507;28;20311;-80
2022/06/11 01:12:47;;;;;;;3.30;1.85;;;18.30;99.90;;;;;;5063860;28;20102;-80
2022/06/11 01:15:42;;;;;;;3.38;2.10;;;18.30;99.90;;;;;;5048142;28;20441;-80
2022/06/11 01:18:15;;;;;;;3.53;2.13;;;18.30;99.90;;;;;;5045875;28;20529;-79
2022/06/11 01:21:05;;;;;;;2.78;1.90;;;18.30;99.90;;;;;;5065182;28;20047;-80
2022/06/11 01:23:33;;;;;;;5.35;2.92;;;18.30;99.90;;;;;;5063893;28;20044;-80
2022/06/11 01:26:20;;;;;;;9.02;3.00;;;18.30;99.90;;;;;;5061872;28;20075;-80
2022/06/11 01:29:13;;;;;;;4.20;1.98;;;18.20;99.90;;;;;;5062525;28;20127;-80
2022/06/11 01:31:49;;;;;;;5.18;2.58;;;18.20;99.90;;;;;;5062422;28;20036;-80
2022/06/11 01:34:26;;;;;;;5.28;2.03;;;18.20;99.90;;;;;;5063608;28;20172;-80
2022/06/11 01:37:01;;;;;;;5.47;3.22;;;18.20;99.90;;;;;;5062192;28;21601;-80
2022/06/11 01:39:56;;;;;;;5.68;1.92;;;18.20;99.90;;;;;;5063183;28;20051;-80
2022/06/11 01:42:54;;;;;;;4.97;2.50;;;18.10;99.90;;;;;;5051376;28;20052;-79
2022/06/11 01:45:39;;;;;;;3.15;2.17;;;18.10;99.90;;;;;;5064721;28;20041;-80
2022/06/11 01:48:09;;;;;;;4.07;1.80;;;18.10;99.90;;;;;;5063862;28;20048;-80
2022/06/11 01:50:39;;;;;;;4.63;3.13;;;18.10;99.90;;;;;;5063698;28;20764;-80
2022/06/11 01:53:25;;;;;;;7.60;2.35;;;18.10;99.90;;;;;;5061831;28;20036;-80
2022/06/11 01:56:12;;;;;;;4.28;2.33;;;18.10;99.90;;;;;;5060344;28;20041;-79
2022/06/11 01:58:56;;;;;;;3.55;2.17;;;18.10;99.90;;;;;;5078640;28;20104;-80
2022/06/11 02:01:55;;;;;;;6.60;2.35;;;18.00;99.90;;;;;;5074156;28;20102;-80
2022/06/11 02:04:37;;;;;;;3.75;2.63;;;18.00;99.90;;;;;;5063239;28;20140;-79
2022/06/11 02:07:20;;;;;;;4.03;2.65;;;18.00;99.90;;;;;;5060680;28;20656;-80
2022/06/11 02:09:58;;;;;;;4.35;2.55;;;18.00;99.90;;;;;;5061444;28;20127;-80
2022/06/11 02:12:52;;;;;;;3.25;2.45;;;17.90;99.90;;;;;;5077884;28;20041;-80
2022/06/11 02:15:27;;;;;;;7.78;2.55;;;17.90;99.90;;;;;;5061062;28;20056;-80
2022/06/11 02:18:00;;;;;;;6.13;2.22;;;17.90;99.90;;;;;;5061138;28;20069;-80
2022/06/11 02:20:38;;;;;;;7.03;2.30;;;17.80;99.90;;;;;;5059542;28;20109;-80
2022/06/11 02:23:14;;;;;;;3.15;1.85;;;17.80;99.90;;;;;;5061140;28;20048;-80
2022/06/11 02:25:46;;;;;;;3.80;2.38;;;17.80;99.90;;;;;;5047403;28;20041;-80
2022/06/11 02:28:16;;;;;;;5.43;2.00;;;17.80;99.90;;;;;;5061993;28;20553;-80
2022/06/11 02:30:45;;;;;;;4.45;2.28;;;17.80;99.90;;;;;;5061277;28;20478;-80
2022/06/11 02:33:13;;;;;;;3.97;1.95;;;17.80;99.90;;;;;;5061908;28;20543;-80
2022/06/11 02:36:02;;;;;;;6.18;2.20;;;17.70;99.90;;;;;;5060265;28;20715;-79
2022/06/11 02:38:29;;;;;;;4.68;2.60;;;17.70;99.90;;;;;;5063500;28;20049;-80
2022/06/11 02:41:07;;;;;;;2.72;2.13;;;17.70;99.90;;;;;;5076537;27;20033;-80
2022/06/11 02:43:34;;;;;;;5.10;3.03;;;17.70;99.90;;;;;;5060025;28;20156;-80
2022/06/11 02:46:40;;;;;;;6.88;3.20;;;17.70;99.90;;;;;;5060731;28;20265;-80
2022/06/11 02:48:46;;;;;;;10.55;2.58;;;17.70;99.90;;;;;;5061148;28;20486;-80
2022/06/11 02:51:12;;;;;;;3.60;2.17;;;17.70;99.90;;;;;;5060454;28;20079;-80
2022/06/11 02:53:38;;;;;;;6.53;2.22;;;17.60;99.90;;;;;;5064570;28;20052;-80
2022/06/11 02:56:04;;;;;;;5.93;2.40;;;17.60;99.90;;;;;;5061429;28;20036;-80
2022/06/11 02:58:29;;;;;;;4.13;2.08;;;17.60;99.90;;;;;;5078175;28;20052;-80
2022/06/11 03:00:55;;;;;;;4.20;2.03;;;17.60;99.90;;;;;;5061847;28;20069;-80
2022/06/11 03:03:23;;;;;;;4.00;2.80;;;17.60;99.90;;;;;;5060696;28;20436;-80
2022/06/11 03:05:49;;;;;;;4.07;2.20;;;17.50;99.90;;;;;;5062395;28;20043;-80
2022/06/11 03:08:15;;;;;;;4.47;1.92;;;17.60;99.90;;;;;;5059785;28;20044;-80
2022/06/11 03:10:41;;;;;;;5.80;2.55;;;17.50;99.90;;;;;;5046189;28;20114;-80
2022/06/11 03:13:07;;;;;;;4.68;2.45;;;17.50;99.90;;;;;;5061543;28;20528;-80
2022/06/11 03:15:34;;;;;;;9.13;2.72;;;17.50;99.90;;;;;;5062930;28;20186;-80
2022/06/11 03:18:00;;;;;;;6.80;2.53;;;17.50;99.90;;;;;;5057976;28;20040;-79
2022/06/11 03:20:31;;;;;;;4.85;2.38;;;17.50;99.90;;;;;;5063614;28;20037;-80
2022/06/11 03:22:57;;;;;;;7.15;2.67;;;17.40;99.90;;;;;;5063720;28;20048;-80
2022/06/11 03:25:23;;;;;;;5.53;2.25;;;17.40;99.90;;;;;;5063562;28;20036;-80
2022/06/11 03:27:50;;;;;;;5.72;2.70;;;17.40;99.90;;;;;;5064849;28;20527;-80
2022/06/11 03:30:17;;;;;;;7.20;3.40;;;17.40;99.90;;;;;;5062077;28;20049;-80
2022/06/11 03:32:43;;;;;;;4.82;2.90;;;17.30;99.90;;;;;;5061188;28;20071;-80
2022/06/11 03:35:09;;;;;;;5.40;2.95;;;17.30;99.90;;;;;;5075758;28;20066;-80
2022/06/11 03:37:35;;;;;;;8.98;2.80;;;17.30;99.90;;;;;;5060468;28;20601;-80
2022/06/11 03:40:02;;;;;;;3.78;3.00;;;17.30;99.90;;;;;;5062335;28;20694;-80
2022/06/11 03:42:28;;;;;;;7.43;2.78;;;17.30;99.90;;;;;;5074769;28;20616;-80
2022/06/11 03:44:54;;;;;;;10.05;4.15;;;17.20;99.90;;;;;;5061852;28;20048;-80
2022/06/11 03:47:20;;;;;;;5.35;2.53;;;17.20;99.90;;;;;;5057389;28;20048;-80
2022/06/11 03:49:46;;;;;;;6.43;3.75;;;17.20;99.90;;;;;;5059120;28;20055;-80
2022/06/11 03:52:12;;;;;;;8.98;3.60;;;17.20;99.90;;;;;;5059681;28;20078;-80
2022/06/11 03:54:38;;;;;;;10.15;3.80;;;17.20;99.90;;;;;;5060551;28;20203;-79
2022/06/11 03:57:05;;;;;;;9.65;4.20;;;17.20;99.90;;;;;;5061510;28;20033;-80
2022/06/11 03:59:32;;;;;;;8.23;4.13;;;17.20;99.90;;;;;;5061640;28;20411;-80
2022/06/11 04:01:58;;;;;;;9.02;3.63;;;17.20;99.90;;;;;;5060013;28;21421;-79
2022/06/11 04:04:24;;;;;;;20.15;3.83;;;17.20;99.90;;;;;;5058179;28;20045;-79
2022/06/11 04:06:57;;;;;;;8.05;3.50;;;17.20;99.90;;;;;;5058948;28;20572;-80
2022/06/11 04:09:36;;;;;;;7.53;3.33;;;17.20;99.90;;;;;;5059895;28;20061;-80
2022/06/11 04:12:04;;;;;;;8.73;2.88;;;17.10;99.90;;;;;;5058350;28;21076;-81
2022/06/11 04:14:30;;;;;;;9.77;3.88;;;17.10;99.90;;;;;;5056948;28;20040;-80
2022/06/11 04:17:01;;;;;;;7.70;4.63;;;17.10;99.90;;;;;;5074976;28;20068;-80
2022/06/11 04:19:33;;;;;;;10.73;4.30;;;17.10;99.90;;;;;;5059392;28;20044;-80
2022/06/11 04:22:00;;;;;;;13.27;4.18;;;17.10;99.90;;;;;;5058285;28;20067;-80
2022/06/11 04:24:27;;;;;;;13.52;4.03;;;17.10;99.90;;;;;;5061559;28;20128;-80
2022/06/11 04:26:55;;;;;;;9.48;3.90;;;17.10;99.90;;;;;;5045359;28;20509;-80
2022/06/11 04:29:24;;;;;;;7.28;3.75;;;17.00;99.90;;;;;;5060755;28;20076;-80
2022/06/11 04:31:52;;;;;;;11.23;4.72;;;17.00;99.90;;;;;;5061078;28;20202;-79
2022/06/11 04:34:18;;;;;;;15.13;5.50;;;17.00;99.90;;;;;;5060618;28;20946;-80
2022/06/11 04:36:46;;;;;;;11.65;4.15;;;17.00;99.90;;;;;;5061844;28;20510;-80
2022/06/11 04:39:14;;;;;;;10.65;5.63;;;17.00;99.90;;;;;;5060521;28;20036;-80
2022/06/11 04:41:40;;;;;;;14.48;5.25;;;17.00;99.90;;;;;;5058484;28;20106;-80
2022/06/11 04:44:06;;;;;;;12.85;4.30;;;17.00;99.90;;;;;;5062558;28;20656;-80
2022/06/11 04:46:32;;;;;;;20.00;7.22;;;17.10;99.90;;;;;;5059654;28;20052;-80
2022/06/11 04:48:57;;;;;;;9.50;4.38;;;17.10;99.90;;;;;;5059180;28;20045;-80
2022/06/11 04:51:24;;;;;;;10.48;5.28;;;17.20;99.90;;;;;;5057416;28;20495;-81
2022/06/11 04:53:49;;;;;;;17.58;5.50;;;17.30;99.90;;;;;;5063040;28;20037;-80
2022/06/11 04:56:20;;;;;;;20.60;5.70;;;17.30;99.90;;;;;;5076576;28;20041;-80
2022/06/11 04:58:46;;;;;;;14.45;6.05;;;17.20;99.90;;;;;;5077985;28;20036;-80
2022/06/11 05:01:12;;;;;;;12.75;6.10;;;17.30;99.90;;;;;;5059584;28;20033;-80
2022/06/11 05:03:38;;;;;;;12.95;6.18;;;17.30;99.90;;;;;;5062015;28;20179;-80
2022/06/11 05:06:04;;;;;;;15.35;6.28;;;17.20;99.90;;;;;;5074480;28;20063;-80
2022/06/11 05:08:30;;;;;;;13.13;5.60;;;17.30;99.90;;;;;;5064185;28;20502;-80
2022/06/11 05:10:57;;;;;;;15.77;5.72;;;17.30;99.90;;;;;;5081058;28;20582;-80
2022/06/11 05:13:22;;;;;;;19.70;6.53;;;17.40;99.90;;;;;;5065063;28;20037;-80
2022/06/11 05:15:57;;;;;;;17.05;5.57;;;17.50;99.90;;;;;;5064674;28;20049;-80
2022/06/11 05:18:23;;;;;;;16.70;6.88;;;17.50;99.90;;;;;;5063001;28;20553;-80
2022/06/11 05:20:49;;;;;;;14.30;6.63;;;17.30;99.90;;;;;;5060882;28;20045;-80
2022/06/11 05:23:15;;;;;;;17.25;5.75;;;17.70;99.90;;;;;;5078754;27;20198;-80
2022/06/11 05:25:42;;;;;;;13.63;5.95;;;17.80;99.90;;;;;;5063005;28;20199;-80
2022/06/11 05:28:14;;;;;;;16.63;6.25;;;17.80;99.90;;;;;;5066407;28;20099;-79
2022/06/11 05:30:41;;;;;;;15.38;5.50;;;17.80;99.90;;;;;;5062903;28;20175;-79
2022/06/11 05:33:07;;;;;;;13.32;4.75;;;17.80;99.90;;;;;;5065432;28;20649;-79
2022/06/11 05:35:34;;;;;;;16.98;4.88;;;17.80;99.90;;;;;;5064007;28;20056;-79
2022/06/11 05:38:03;;;;;;;18.55;6.35;;;17.80;99.90;;;;;;5064757;28;20439;-79
2022/06/11 05:40:35;;;;;;;18.20;7.40;;;17.80;99.90;;;;;;5060864;28;20040;-80
2022/06/11 05:43:01;;;;;;;15.00;6.72;;;17.80;99.90;;;;;;5061102;28;20536;-80
2022/06/11 05:45:35;;;;;;;15.98;7.07;;;17.80;99.90;;;;;;5061361;28;20049;-80
2022/06/11 05:48:03;;;;;;;9.55;5.20;;;17.80;99.90;;;;;;5063474;28;20037;-80
2022/06/11 05:50:33;;;;;;;15.38;5.97;;;17.80;99.90;;;;;;5063343;28;20079;-80
2022/06/11 05:53:01;;;;;;;13.38;5.40;;;17.80;99.90;;;;;;5061952;28;20849;-80
2022/06/11 05:55:29;;;;;;;12.43;5.28;;;17.80;99.90;;;;;;5080503;28;20471;-80
2022/06/11 05:57:57;;;;;;;9.85;5.63;;;17.90;99.90;;;;;;5059164;28;20037;-80
2022/06/11 06:00:25;;;;;;;10.45;4.82;;;17.90;99.90;;;;;;5062120;28;20049;-80
2022/06/11 06:02:50;;;;;;;13.30;4.65;;;18.00;99.90;;;;;;5074090;28;20037;-80
2022/06/11 06:05:20;;;;;;;11.45;4.95;;;18.10;99.90;;;;;;5060895;28;20399;-80
2022/06/11 06:07:46;;;;;;;12.00;5.45;;;18.20;99.90;;;;;;5064670;28;20041;-80
2022/06/11 06:10:13;;;;;;;9.95;4.82;;;18.30;99.90;;;;;;5064879;28;20036;-80
2022/06/11 06:12:39;;;;;;;18.85;4.60;;;18.40;99.90;;;;;;5064677;28;20049;-84
2022/06/11 06:15:14;;;;;;;7.18;4.22;;;18.40;99.90;;;;;;5061732;28;20072;-80
2022/06/11 06:17:41;;;;;;;9.70;4.45;;;18.50;99.90;;;;;;5062773;28;20049;-81
2022/06/11 06:20:10;;;;;;;9.57;4.38;;;18.50;99.90;;;;;;5060718;28;20046;-80
2022/06/11 06:22:36;;;;;;;8.35;3.78;;;18.50;99.90;;;;;;5063830;28;20048;-80
2022/06/11 06:25:02;;;;;;;6.82;3.63;;;18.60;99.90;;;;;;5065924;28;20041;-80
2022/06/11 06:27:28;;;;;;;9.77;4.10;;;18.60;99.90;;;;;;5065480;28;20997;-80
2022/06/11 06:29:54;;;;;;;10.63;3.55;;;18.60;99.90;;;;;;5065054;28;20037;-80
2022/06/11 06:32:20;;;;;;;8.40;3.28;;;18.60;99.90;;;;;;5062793;28;20040;-80
2022/06/11 06:34:46;;;;;;;8.13;3.55;;;18.70;99.90;;;;;;5065136;28;20821;-80
2022/06/11 06:37:12;;;;;;;8.43;3.70;;;18.70;99.90;;;;;;5062127;28;20048;-80
2022/06/11 06:39:38;;;;;;;9.15;3.30;;;18.70;99.90;;;;;;5062779;28;20044;-80
2022/06/11 06:42:06;;;;;;;9.85;3.63;;;18.70;99.90;;;;;;5079612;28;20118;-80
2022/06/11 06:44:32;;;;;;;7.40;2.75;;;18.70;99.90;;;;;;5063246;28;20055;-80
2022/06/11 06:46:58;;;;;;;7.63;3.85;;;18.60;99.90;;;;;;5064640;28;20430;-80
2022/06/11 06:49:24;;;;;;;7.55;3.20;;;18.60;99.90;;;;;;5060091;28;20073;-80
2022/06/11 06:51:50;;;;;;;6.45;3.45;;;18.50;99.90;;;;;;5062196;28;20036;-82
2022/06/11 06:54:16;;;;;;;7.95;2.58;;;18.40;99.90;;;;;;5057960;28;20730;-89
2022/06/11 06:56:44;;;;;;;11.55;3.22;;;18.30;99.90;;;;;;5061679;28;20098;-80
2022/06/11 06:59:10;;;;;;;7.85;2.92;;;18.30;99.90;;;;;;5071070;28;20275;-79
2022/06/11 07:01:36;;;;;;;10.02;4.20;;;18.30;99.90;;;;;;5064476;28;20045;-80
2022/06/11 07:04:02;;;;;;;11.35;3.42;;;18.40;99.90;;;;;;5046357;28;20092;-79
2022/06/11 07:06:31;;;;;;;4.88;2.70;;;18.50;99.90;;;;;;5048603;28;20079;-80
2022/06/11 07:08:57;;;;;;;5.72;3.00;;;18.60;99.90;;;;;;5059307;28;20064;-80
2022/06/11 07:11:23;;;;;;;8.15;2.53;;;18.60;99.90;;;;;;5063697;28;20427;-80
2022/06/11 07:13:49;;;;;;;9.32;4.18;;;18.60;99.90;;;;;;5045417;28;20044;-80
2022/06/11 07:16:19;;;;;;;13.32;5.13;;;18.60;99.90;;;;;;5063513;28;20570;-80
2022/06/11 07:18:51;;;;;;;7.95;2.35;;;18.50;99.90;;;;;;5061760;28;20041;-80
2022/06/11 07:21:26;;;;;;;6.00;3.00;;;18.40;99.90;;;;;;5044433;28;20068;-80
2022/06/11 07:24:03;;;;;;;5.13;2.45;;;18.40;99.90;;;;;;5062858;28;20056;-80
2022/06/11 07:26:34;;;;;;;7.68;3.50;;;18.30;99.90;;;;;;5064559;28;20048;-80
2022/06/11 07:29:15;;;;;;;8.93;3.15;;;18.30;99.90;;;;;;5061605;28;20044;-79
2022/06/11 07:31:44;;;;;;;5.90;2.40;;;18.30;99.90;;;;;;5061310;28;20044;-79
2022/06/11 07:34:12;;;;;;;7.78;2.85;;;18.30;99.90;;;;;;5062414;28;20523;-79
2022/06/11 07:36:38;;;;;;;9.23;2.20;;;18.30;99.90;;;;;;5061791;28;20037;-79
2022/06/11 07:39:04;;;;;;;5.00;1.75;;;18.40;99.90;;;;;;5062050;28;20073;-79
2022/06/11 07:41:29;;;;;;;5.22;2.72;;;18.50;99.90;;;;;;5062900;28;20053;-80
2022/06/11 07:43:55;;;;;;;4.65;2.88;;;18.50;99.90;;;;;;5061492;28;21422;-80
2022/06/11 07:46:21;;;;;;;12.68;2.33;;;18.60;99.90;;;;;;5061077;28;20087;-79
2022/06/11 07:48:48;;;;;;;5.72;2.55;;;18.60;99.90;;;;;;5062304;28;20140;-78
2022/06/11 07:51:18;;;;;;;4.47;2.40;;;18.70;99.90;;;;;;5064154;28;20886;-79
2022/06/11 07:53:45;;;;;;;4.40;1.73;;;18.70;99.90;;;;;;5062743;28;20132;-80
2022/06/11 07:56:10;;;;;;;9.18;3.35;;;18.80;99.90;;;;;;5066172;28;20098;-80
2022/06/11 07:58:37;;;;;;;9.60;2.47;;;18.80;99.90;;;;;;5067922;28;20044;-79
2022/06/11 08:01:02;;;;;;;4.60;1.75;;;18.90;99.90;;;;;;5065903;28;20041;-79
2022/06/11 08:03:28;;;;;;;5.65;1.70;;;18.90;99.90;;;;;;5062473;28;20057;-79
2022/06/11 08:05:54;;;;;;;3.50;1.90;;;18.80;99.90;;;;;;5081768;28;20052;-79
2022/06/11 08:08:21;;;;;;;4.35;2.70;;;18.80;99.90;;;;;;5049656;28;20041;-79
2022/06/11 08:10:47;;;;;;;2.80;1.63;;;18.70;99.90;;;;;;5064280;28;20119;-79
2022/06/11 08:13:13;;;;;;;6.90;2.25;;;18.80;99.90;;;;;;5077311;28;20602;-78
2022/06/11 08:15:42;;;;;;;9.40;1.63;;;18.80;99.90;;;;;;5065071;28;20045;-80
2022/06/11 08:18:08;;;;;;;6.55;1.83;;;18.80;99.90;;;;;;5081832;28;20033;-79
2022/06/11 08:20:36;;;;;;;4.25;1.45;;;18.90;99.90;;;;;;5061304;28;20045;-80
2022/06/11 08:23:02;;;;;;;6.13;2.00;;;18.90;99.90;;;;;;5063092;28;20514;-81
2022/06/11 08:25:29;;;;;;;3.42;1.70;;;18.90;99.90;;;;;;5063729;28;20037;-81
2022/06/11 08:27:56;;;;;;;4.10;1.60;;;18.90;99.90;;;;;;5063253;28;20048;-81
2022/06/11 08:30:24;;;;;;;10.20;1.90;;;19.00;99.90;;;;;;5062967;28;20033;-81
2022/06/11 08:32:51;;;;;;;4.78;2.10;;;19.00;99.90;;;;;;5060242;28;20128;-81
2022/06/11 08:35:21;;;;;;;5.45;1.67;;;19.00;99.90;;;;;;5062871;28;20045;-82
2022/06/11 08:37:47;;;;;;;6.30;2.30;;;19.00;99.90;;;;;;5061997;28;20106;-81
2022/06/11 08:40:34;;;;;;;4.47;1.40;;;18.90;99.90;;;;;;5056983;28;20076;-81
2022/06/11 08:43:29;;;;;;;3.35;1.50;;;18.90;99.90;;;;;;5059826;28;20111;-81
2022/06/11 08:46:24;;;;;;;5.53;1.63;;;18.90;99.90;;;;;;5059960;28;20765;-81
2022/06/11 08:49:11;;;;;;;7.30;1.92;;;19.00;99.90;;;;;;5076527;28;20067;-81
2022/06/11 08:52:17;;;;;;;4.72;1.60;;;19.00;99.90;;;;;;5061710;28;20094;-81
2022/06/11 08:54:45;;;;;;;3.08;1.45;;;19.00;99.90;;;;;;5064117;28;20076;-81
2022/06/11 08:57:43;;;;;;;3.47;1.42;;;19.00;99.90;;;;;;5046548;28;20045;-81
2022/06/11 09:00:24;;;;;;;4.07;1.75;;;19.00;99.90;;;;;;5080517;28;20048;-81
2022/06/11 09:02:53;;;;;;;5.88;1.80;;;19.10;99.90;;;;;;5061700;28;20068;-81
2022/06/11 09:05:38;;;;;;;2.50;1.70;;;19.10;99.90;;;;;;5059630;28;20494;-82
2022/06/11 09:08:04;;;;;;;5.75;1.48;;;19.10;99.90;;;;;;5061771;28;20069;-80
2022/06/11 09:11:05;;;;;;;3.92;2.22;;;19.10;99.90;;;;;;5064195;28;20037;-81
2022/06/11 09:14:09;;;;;;;4.05;1.73;;;19.20;99.90;;;;;;5061379;28;20090;-81
2022/06/11 09:16:41;;;;;;;6.15;2.60;;;19.20;99.90;;;;;;5062743;28;20135;-81
2022/06/11 09:19:28;;;;;;;9.57;2.15;;;19.30;99.90;;;;;;5061911;28;20051;-80
2022/06/11 09:21:56;;;;;;;1.92;1.33;;;19.40;99.90;;;;;;5060992;28;20048;-80
2022/06/11 09:24:36;;;;;;;5.05;1.40;;;19.60;99.90;;;;;;5061156;28;20892;-80
2022/06/11 09:27:28;;;;;;;7.13;2.40;;;19.80;99.90;;;;;;5056969;28;20119;-81
2022/06/11 09:29:59;;;;;;;;;;;20.00;99.90;;;;;;5060702;28;20055;-81
2022/06/11 09:32:50;;;;;;;4.78;1.80;;;20.30;99.90;;;;;;5061696;28;19970;-81
2022/06/11 09:35:21;;;;;;;3.70;1.63;;;20.60;99.90;;;;;;5052692;28;20069;-81
2022/06/11 09:37:55;;;;;;;4.00;1.38;;;20.80;99.90;;;;;;5064659;28;20111;-81
2022/06/11 09:40:37;;;;;;;4.35;1.95;;;20.80;99.90;;;;;;5064919;28;20041;-81
2022/06/11 09:43:25;;;;;;;2.08;1.48;;;20.80;99.90;;;;;;5080575;28;20060;-81
2022/06/11 09:46:07;;;;;;;2.95;1.63;;;20.90;99.90;;;;;;5066059;28;20040;-81
2022/06/11 09:49:03;;;;;;;6.57;1.90;;;21.00;99.90;;;;;;5064342;28;20052;-82
2022/06/11 09:51:57;;;;;;;4.60;1.67;;;21.10;99.90;;;;;;5064672;28;20114;-82
2022/06/11 09:54:51;;;;;;;2.40;1.48;;;21.10;99.90;;;;;;5064891;28;20033;-81
2022/06/11 09:57:44;;;;;;;6.68;2.50;;;21.10;99.90;;;;;;5063577;28;20078;-81
2022/06/11 10:00:19;;;;;;;2.80;1.30;;;21.20;99.90;;;;;;5074795;28;20099;-81
2022/06/11 10:02:50;;;;;;;6.32;2.55;;;21.20;99.90;;;;;;5081810;28;20040;-81
2022/06/11 10:05:25;;;;;;;6.47;3.30;;;21.20;99.90;;;;;;5064385;28;20045;-81
2022/06/11 10:07:57;;;;;;;1.85;1.35;;;21.20;99.90;;;;;;5065442;28;20271;-84
2022/06/11 10:10:30;;;;;;;2.15;1.40;;;21.20;99.90;;;;;;5064885;28;20052;-84
2022/06/11 10:13:02;;;;;;;4.95;2.13;;;21.40;99.90;;;;;;5049839;28;20132;-84
2022/06/11 10:15:39;;;;;;;2.85;1.35;;;21.60;99.90;;;;;;5063420;28;20131;-84
2022/06/11 10:18:23;;;;;;;3.30;1.80;;;21.80;99.90;;;;;;5063890;28;20545;-85
2022/06/11 10:20:59;;;;;;;2.58;1.85;;;21.90;99.90;;;;;;5050550;28;20451;-85
2022/06/11 10:23:47;;;;;;;2.55;1.40;;;21.90;99.90;;;;;;5066262;28;20045;-84
2022/06/11 10:26:25;;;;;;;4.05;2.03;;;22.00;99.90;;;;;;5061084;28;20071;-85
2022/06/11 10:29:20;;;;;;;4.45;2.03;;;22.00;99.90;;;;;;5061501;28;20037;-85
2022/06/11 10:31:52;;;;;;;8.13;3.38;;;22.00;99.90;;;;;;5058835;28;20160;-84
2022/06/11 10:34:25;;;;;;;;;;;22.10;99.90;;;;;;5056833;28;20495;-85
2022/06/11 10:37:04;;;;;;;4.97;2.95;;;22.20;99.90;;;;;;5061325;28;19959;-84
2022/06/11 10:39:36;;;;;;;6.07;2.58;;;22.20;99.90;;;;;;5061394;28;20099;-86
2022/06/11 10:42:09;;;;;;;3.58;1.60;;;22.20;99.90;;;;;;5059365;28;20056;-84
2022/06/11 10:44:44;;;;;;;2.67;1.55;;;22.20;99.90;;;;;;5058590;28;20119;-84
2022/06/11 10:47:27;;;;;;;3.92;1.27;;;22.20;99.90;;;;;;5062458;28;20106;-85
2022/06/11 10:50:14;;;;;;;2.55;1.55;;;22.10;99.90;;;;;;5062127;28;20032;-84
2022/06/11 10:52:59;;;;;;;3.40;2.03;;;22.00;99.90;;;;;;5036112;28;20055;-83
2022/06/11 10:55:36;;;;;;;4.20;1.55;;;22.10;99.90;;;;;;5064992;28;20577;-84
2022/06/11 10:58:25;;;;;;;4.13;2.15;;;22.00;99.90;;;;;;5065240;28;20045;-83
2022/06/11 11:01:02;;;;;;;2.95;1.55;;;21.90;99.90;;;;;;5062443;28;20095;-84
2022/06/11 11:03:39;;;;;;;4.20;1.40;;;21.90;99.90;;;;;;5062423;28;20511;-85
2022/06/11 11:06:15;;;;;;;2.65;1.30;;;22.00;99.90;;;;;;5057326;28;20068;-84
2022/06/11 11:08:55;;;;;;;5.82;2.13;;;21.90;99.90;;;;;;5061760;28;20521;-84
2022/06/11 11:11:22;;;;;;;2.17;1.55;;;21.80;99.90;;;;;;5061989;28;20051;-86
2022/06/11 11:13:48;;;;;;;2.13;1.20;;;21.80;99.90;;;;;;5081621;28;20051;-84
2022/06/11 11:16:19;;;;;;;4.07;1.42;;;21.70;99.90;;;;;;5062626;28;20044;-84
2022/06/11 11:19:11;;;;;;;4.53;1.52;;;21.70;99.90;;;;;;5058759;28;20045;-85
2022/06/11 11:21:48;;;;;;;4.85;1.90;;;21.80;99.90;;;;;;5063078;28;20052;-84
2022/06/11 11:24:19;;;;;;;3.08;1.52;;;22.00;99.90;;;;;;5063777;28;20075;-85
2022/06/11 11:26:57;;;;;;;3.42;1.40;;;22.20;99.90;;;;;;5061926;28;20072;-85
2022/06/11 11:29:35;;;;;;;3.83;1.70;;;22.30;99.90;;;;;;5076361;28;20033;-84
2022/06/11 11:32:24;;;;;;;3.50;1.10;;;22.40;99.90;;;;;;5062354;28;20079;-85
2022/06/11 11:34:50;;;;;;;2.13;1.02;;;22.50;99.90;;;;;;5058784;28;20484;-85
2022/06/11 11:37:16;;;;;;;2.55;1.10;;;22.40;99.90;;;;;;5060480;28;20044;-85
2022/06/11 11:39:57;;;;;;;2.38;1.05;;;22.40;99.90;;;;;;5062115;28;20052;-85
2022/06/11 11:42:38;;;;;;;2.70;1.00;;;22.40;99.90;;;;;;5059865;28;20048;-86
2022/06/11 11:45:24;;;;;;;3.03;1.08;;;22.40;99.90;;;;;;5060357;28;20632;-82
2022/06/11 11:47:59;;;;;;;6.70;1.30;;;22.40;99.90;;;;;;5060557;28;20045;-90
2022/06/11 11:50:34;;;;;;;1.75;1.02;;;22.60;99.90;;;;;;5060491;28;20040;-86
2022/06/11 11:53:14;;;;;;;2.13;1.80;;;22.70;99.90;;;;;;5055338;28;20045;-80
2022/06/11 11:55:43;;;;;;;2.55;1.27;;;22.60;99.90;;;;;;5045183;28;20395;-82
2022/06/11 11:58:21;;;;;;;3.75;1.20;;;22.60;99.90;;;;;;5059139;28;20045;-81
2022/06/11 12:01:06;;;;;;;1.40;1.00;;;22.50;99.90;;;;;;5060412;28;20037;-81
2022/06/11 12:03:37;;;;;;;2.90;1.30;;;22.60;99.90;;;;;;5056913;28;20040;-81
2022/06/11 12:06:04;;;;;;;2.95;1.10;;;22.70;99.90;;;;;;5055679;28;21143;-81
2022/06/11 12:08:48;;;;;;;1.98;1.10;;;22.80;99.90;;;;;;5059755;28;20180;-81
2022/06/11 12:11:28;;;;;;;1.73;0.90;;;22.90;99.90;;;;;;5061697;28;20039;-81
2022/06/11 12:14:01;;;;;;;2.45;1.50;;;22.80;99.90;;;;;;5062211;28;20052;-81
2022/06/11 12:16:53;;;;;;;3.28;1.25;;;22.80;99.90;;;;;;5063670;28;20134;-80
2022/06/11 12:19:19;;;;;;;3.33;1.15;;;22.80;99.90;;;;;;5063544;28;20052;-80
2022/06/11 12:21:48;;;;;;;1.92;1.30;;;22.80;99.90;;;;;;5062252;28;20052;-81
2022/06/11 12:24:24;;;;;;;1.65;1.25;;;22.90;99.90;;;;;;5063370;28;20037;-81
2022/06/11 12:26:55;;;;;;;2.75;1.42;;;22.90;99.90;;;;;;5065369;28;20042;-80
2022/06/11 12:29:39;;;;;;;3.85;1.40;;;22.90;99.90;;;;;;5063375;28;20045;-81
2022/06/11 12:32:19;;;;;;;3.22;1.15;;;22.90;99.90;;;;;;5068623;28;20871;-81
2022/06/11 12:34:45;;;;;;;1.85;1.20;;;22.80;99.90;;;;;;5062381;28;20037;-83
2022/06/11 12:37:43;;;;;;;1.95;1.20;;;22.80;99.90;;;;;;5059093;28;20041;-84
2022/06/11 12:40:18;;;;;;;2.72;1.38;;;22.60;99.90;;;;;;5072570;27;20048;-82
2022/06/11 12:43:01;;;;;;;2.28;1.45;;;22.50;99.90;;;;;;5065142;28;20077;-89
2022/06/11 12:45:42;;;;;;;3.15;1.30;;;22.40;99.90;;;;;;5062905;28;20115;-84
2022/06/11 12:48:20;;;;;;;3.45;1.67;;;22.50;99.90;;;;;;5080444;28;20052;-83
2022/06/11 12:51:05;;;;;;;1.40;1.00;;;22.50;99.90;;;;;;5066964;28;20786;-83
2022/06/11 12:53:54;;;;;;;2.10;1.20;;;22.50;99.90;;;;;;5082472;28;20124;-83
2022/06/11 12:56:39;;;;;;;2.63;1.77;;;22.50;99.90;;;;;;5065808;28;20036;-83
2022/06/11 12:59:18;;;;;;;4.15;1.20;;;22.40;99.90;;;;;;5066600;28;20602;-83
2022/06/11 13:01:58;;;;;;;2.50;1.55;;;22.50;99.90;;;;;;5067462;28;20045;-83
2022/06/11 13:04:41;;;;;;;2.35;1.10;;;22.60;99.90;;;;;;5065611;28;20061;-83
2022/06/11 13:07:34;;;;;;;2.65;1.10;;;22.70;99.90;;;;;;5067846;28;20044;-83
2022/06/11 13:10:15;;;;;;;2.33;1.20;;;22.90;99.90;;;;;;5066810;28;20044;-83
2022/06/11 13:13:03;;;;;;;2.33;1.23;;;23.10;99.90;;;;;;5067688;28;20053;-83
2022/06/11 13:15:41;;;;;;;1.65;0.90;;;23.10;99.90;;;;;;5066752;28;20060;-82
2022/06/11 13:18:12;;;;;;;2.53;1.13;;;23.10;99.90;;;;;;5067612;28;20599;-83